Atlantic Beach, Florida
Current Conditions -  °F | °C
As of 9:52 AM on Friday 31 Oct 2014 (Local Time) from KNRB Reporting Station
Scattered Clouds Scattered Clouds  
Wind Chill: 69°   Ceiling: Unl
Heat Index: 69°   Visibility: 10mi
Dew Point: 61°   Wind: 9mph
Humidity: 75%   Direction: 350°N
Pressure: 29.87"   Gusts: NA
Location:  30.33°N, 81.4°W
Report Text: KNRB 311352Z 35008KT 10SM SCT035 21/16 A2987 RMK AO2 SLP115 T02060161 $
Loading
Personal Weather Stations






























Interactive Weather Map
Tropical Storm Tracking
New forecast layout! Learn more

10-Day Weather Forecast

Advertisements
Track Severe Weather on mobile